Etusivu
METAR-TAF:

METAR-TAF

Lentoasemat :

Stuttgart Municipal Airport

Stuttgart, Arkansas, Yhdysvallat

Leveyspiiri: 34-36N, Pituuspiiri: 091-34W, korkeus merenpinnasta: 68 m

Tämänhetkinen sää

Tämä raportti tehtiin 10 minuuttia sitten, kello 10.56 UTC
Tuuli 4 kn idästä
Lämpötila 24°C
Kosteus 94%
Ilmanpaine 1017 hPa
Näkyvyys: 16.1 km
Hajonneita pilviä 300 ft:n korkeudessa

METAR: KSGT 241056Z AUTO 09004KT 10SM BKN003 24/23 A3002 RMK AO2 SLP163 T02390233

Aika: 06:06 (11:06 UTC)


TAF: puuttuu

Säähavainnot ja -ennusteet yli 4000 lentoasemalta (METAR- ja TAF-raportit).

Käytössä olevat sääasemat on merkitty karttaan keltaisilla ja punaisilla pisteillä.

Aseta hiiri pisteen päälle nähdäksesi sääaseman nimen.

Klikkaa sitten nähdäksesi säähavainnot ja -ennusteet.

Kartan vaihtaminen: klikkaa mustalla rastilla varustettuja vihreitä pisteitä, niin voit zoomata sisään; viivalla varustettua vihreää pistettä, niin voit zoomata ulos tai vihreitä nuolia, niin pääset viereisille kartoille.


METAR-TAF: